Time;durP1;ratioP1;P1;durP2;ratioP2;P2;SDS_P1;SDS_P2;PMS_P1;PMS_P2;Temp;Humidity;BMP_temperature;BMP_pressure;BME280_temperature;BME280_humidity;BME280_pressure;Samples;Min_cycle;Max_cycle;Signal;HPM_P1;HPM_P2
2024/01/07 00:02:31;;;;;;;13.75;10.65;;;;;;;1.83;100.00;101606.34;5123854;27;20130;-71
2024/01/07 00:05:19;;;;;;;13.55;10.43;;;;;;;1.85;100.00;101605.16;5116192;28;20054;-71
2024/01/07 00:08:07;;;;;;;12.77;10.55;;;;;;;1.85;100.00;101598.91;5115737;28;20056;-71
2024/01/07 00:10:55;;;;;;;13.48;10.75;;;;;;;2.00;100.00;101606.94;5087015;27;20097;-70
2024/01/07 00:13:45;;;;;;;14.70;11.30;;;;;;;1.87;100.00;101600.38;5113447;28;20062;-72
2024/01/07 00:16:34;;;;;;;15.23;11.63;;;;;;;1.84;100.00;101606.16;5116660;28;20039;-70
2024/01/07 00:19:22;;;;;;;13.93;10.15;;;;;;;1.85;100.00;101613.19;5100791;28;20551;-72
2024/01/07 00:22:10;;;;;;;15.43;11.45;;;;;;;1.87;100.00;101618.38;5100270;28;20189;-72
2024/01/07 00:24:58;;;;;;;13.45;10.57;;;;;;;1.81;100.00;101619.97;5099907;28;20051;-72
2024/01/07 00:27:46;;;;;;;13.82;10.57;;;;;;;1.94;100.00;101630.03;5099696;28;20064;-71
2024/01/07 00:30:35;;;;;;;13.95;10.15;;;;;;;2.00;100.00;101621.22;5099428;28;20456;-71
2024/01/07 00:33:23;;;;;;;13.93;11.07;;;;;;;2.00;100.00;101629.28;5115467;28;20044;-71
2024/01/07 00:36:12;;;;;;;14.90;11.80;;;;;;;1.91;100.00;101633.09;5115590;27;20047;-71
2024/01/07 00:39:00;;;;;;;13.98;10.88;;;;;;;1.98;100.00;101631.31;5115757;28;20052;-71
2024/01/07 00:41:48;;;;;;;15.95;12.48;;;;;;;1.96;100.00;101636.03;5099040;28;20147;-71
2024/01/07 00:44:37;;;;;;;17.85;13.13;;;;;;;1.98;100.00;101634.00;5114309;28;20043;-71
2024/01/07 00:47:25;;;;;;;17.25;13.38;;;;;;;2.00;100.00;101644.56;5085455;28;20043;-71
2024/01/07 00:50:13;;;;;;;16.67;13.93;;;;;;;1.94;100.00;101646.16;5114685;27;20039;-70
2024/01/07 00:53:01;;;;;;;20.58;13.68;;;;;;;1.86;100.00;101649.78;5120349;27;20051;-70
2024/01/07 00:55:49;;;;;;;19.85;15.02;;;;;;;1.85;100.00;101649.97;5091192;27;20043;-70
2024/01/07 00:58:37;;;;;;;20.08;14.75;;;;;;;1.82;100.00;101653.03;5134399;27;20047;-70
2024/01/07 01:01:25;;;;;;;19.13;14.25;;;;;;;1.85;100.00;101652.66;5113624;27;20055;-71
2024/01/07 01:04:14;;;;;;;20.27;15.07;;;;;;;1.87;100.00;101661.38;5114578;28;20046;-71
2024/01/07 01:07:02;;;;;;;20.05;15.30;;;;;;;1.76;100.00;101664.56;5098715;28;20184;-70
2024/01/07 01:09:50;;;;;;;22.73;17.23;;;;;;;1.67;100.00;101661.97;5099078;28;20133;-71
2024/01/07 01:12:38;;;;;;;21.67;16.63;;;;;;;1.77;100.00;101661.66;5084705;28;20134;-71
2024/01/07 01:15:26;;;;;;;22.30;17.40;;;;;;;1.73;100.00;101664.91;5111085;27;20495;-71
2024/01/07 01:18:14;;;;;;;23.50;17.23;;;;;;;1.70;100.00;101663.44;5106310;27;20406;-71
2024/01/07 01:21:02;;;;;;;22.98;17.88;;;;;;;1.64;100.00;101666.91;5106715;28;20044;-72
2024/01/07 01:23:50;;;;;;;22.60;16.52;;;;;;;1.70;100.00;101664.25;5114204;28;20044;-72
2024/01/07 01:26:39;;;;;;;23.80;16.88;;;;;;;1.71;100.00;101673.19;5135291;28;20040;-72
2024/01/07 01:29:27;;;;;;;22.73;16.05;;;;;;;1.60;100.00;101671.78;5130438;28;20055;-72
2024/01/07 01:32:15;;;;;;;21.60;16.40;;;;;;;1.63;100.00;101671.41;5131334;27;20118;-71
2024/01/07 01:35:04;;;;;;;22.38;17.17;;;;;;;1.69;100.00;101678.72;5141316;27;20123;-74
2024/01/07 01:37:54;;;;;;;23.20;17.27;;;;;;;1.65;100.00;101682.81;5121727;28;20064;-74
2024/01/07 01:40:42;;;;;;;22.13;15.93;;;;;;;1.70;100.00;101680.38;5121188;28;20515;-72
2024/01/07 01:43:30;;;;;;;22.98;17.40;;;;;;;1.77;100.00;101685.03;5088651;28;20044;-72
2024/01/07 01:46:18;;;;;;;22.98;16.58;;;;;;;1.57;100.00;101693.66;5099017;28;20053;-71
2024/01/07 01:49:07;;;;;;;23.67;16.70;;;;;;;1.51;100.00;101694.41;5099129;28;20048;-71
2024/01/07 01:51:55;;;;;;;23.08;16.92;;;;;;;1.48;100.00;101700.97;5084950;28;20513;-71
2024/01/07 01:54:44;;;;;;;22.95;16.50;;;;;;;1.44;100.00;101698.84;5098943;28;20047;-71
2024/01/07 01:57:35;;;;;;;23.08;17.05;;;;;;;1.47;100.00;101701.19;5098786;28;20043;-71
2024/01/07 02:00:23;;;;;;;21.88;16.38;;;;;;;1.54;100.00;101704.78;5085667;27;20042;-71
2024/01/07 02:03:12;;;;;;;23.95;17.73;;;;;;;1.64;100.00;101710.69;5113315;28;20141;-71
2024/01/07 02:06:00;;;;;;;23.67;16.92;;;;;;;1.60;100.00;101709.41;5096985;28;20097;-70
2024/01/07 02:08:49;;;;;;;22.13;15.82;;;;;;;1.55;100.00;101706.44;5077340;28;20044;-71
2024/01/07 02:11:37;;;;;;;27.80;19.25;;;;;;;1.58;100.00;101711.44;5077720;28;20040;-71
2024/01/07 02:14:25;;;;;;;26.55;19.08;;;;;;;1.55;100.00;101716.34;5076199;28;20052;-70
2024/01/07 02:17:13;;;;;;;22.98;16.85;;;;;;;1.50;100.00;101714.22;5091609;28;20102;-71
2024/01/07 02:20:01;;;;;;;30.58;20.45;;;;;;;1.52;100.00;101706.81;5087431;27;20043;-71
2024/01/07 02:22:49;;;;;;;34.15;22.15;;;;;;;1.38;100.00;101715.72;5132050;27;20550;-71
2024/01/07 02:25:37;;;;;;;32.83;23.10;;;;;;;1.34;100.00;101717.09;5107820;28;20051;-70
2024/01/07 02:28:25;;;;;;;25.23;17.33;;;;;;;1.40;100.00;101719.06;5077830;27;20051;-70
2024/01/07 02:31:13;;;;;;;34.03;22.27;;;;;;;1.45;100.00;101712.09;5090745;27;20039;-71
2024/01/07 02:34:01;;;;;;;28.65;19.08;;;;;;;1.41;100.00;101715.34;5098596;28;20070;-71
2024/01/07 02:36:49;;;;;;;25.45;16.95;;;;;;;1.46;100.00;101726.34;5084473;28;20044;-71
2024/01/07 02:39:37;;;;;;;33.33;20.92;;;;;;;1.51;100.00;101732.00;5083738;28;20126;-72
2024/01/07 02:42:25;;;;;;;30.77;21.55;;;;;;;1.55;100.00;101736.00;5112461;28;20051;-70
2024/01/07 02:45:14;;;;;;;32.78;23.20;;;;;;;1.60;100.00;101736.25;5084264;28;20046;-70
2024/01/07 02:48:02;;;;;;;31.42;22.17;;;;;;;1.63;100.00;101735.06;5065604;28;20040;-70
2024/01/07 02:50:50;;;;;;;31.20;22.30;;;;;;;1.54;100.00;101745.06;5122647;28;20403;-71
2024/01/07 02:53:38;;;;;;;30.52;20.10;;;;;;;1.53;100.00;101746.06;5111352;28;20039;-71
2024/01/07 02:56:26;;;;;;;25.75;19.45;;;;;;;1.56;100.00;101740.31;5097166;28;20140;-71
2024/01/07 02:59:14;;;;;;;23.27;16.25;;;;;;;1.54;100.00;101744.22;5097363;28;20044;-71
2024/01/07 03:02:02;;;;;;;26.15;18.13;;;;;;;1.54;100.00;101738.84;5097560;28;20043;-71
2024/01/07 03:04:50;;;;;;;25.98;18.70;;;;;;;1.42;100.00;101750.06;5105879;28;20047;-72
2024/01/07 03:07:39;;;;;;;25.35;18.75;;;;;;;1.39;100.00;101754.97;5097545;28;20123;-71
2024/01/07 03:10:27;;;;;;;24.42;17.13;;;;;;;1.38;100.00;101753.31;5112587;28;20130;-70
2024/01/07 03:13:15;;;;;;;23.75;17.13;;;;;;;1.40;100.00;101762.03;5114480;28;20047;-71
2024/01/07 03:16:05;;;;;;;21.52;15.93;;;;;;;1.37;100.00;101759.69;5116226;27;20043;-70
2024/01/07 03:18:53;;;;;;;21.55;16.08;;;;;;;1.39;100.00;101760.34;5086298;28;20624;-71
2024/01/07 03:21:41;;;;;;;21.55;15.70;;;;;;;1.42;100.00;101766.19;5101379;28;20047;-71
2024/01/07 03:24:29;;;;;;;21.15;15.10;;;;;;;1.51;100.00;101766.09;5115440;28;20131;-73
2024/01/07 03:27:17;;;;;;;22.05;15.85;;;;;;;1.53;100.00;101764.88;5115914;28;20059;-72
2024/01/07 03:30:06;;;;;;;22.50;16.27;;;;;;;1.42;100.00;101776.06;5100803;28;20040;-71
2024/01/07 03:32:54;;;;;;;20.15;15.40;;;;;;;1.40;100.00;101767.38;5114784;28;20043;-71
2024/01/07 03:35:42;;;;;;;21.17;15.10;;;;;;;1.41;100.00;101769.03;5086979;28;20052;-71
2024/01/07 03:38:30;;;;;;;21.95;16.35;;;;;;;1.44;100.00;101768.66;5115131;28;20051;-72
2024/01/07 03:41:19;;;;;;;21.50;15.07;;;;;;;1.38;100.00;101774.78;5101035;27;20047;-71
2024/01/07 03:44:07;;;;;;;21.35;15.07;;;;;;;1.39;100.00;101781.81;5115193;28;20077;-72
2024/01/07 03:46:55;;;;;;;18.73;12.98;;;;;;;1.47;100.00;101781.75;5099773;28;20514;-72
2024/01/07 03:49:43;;;;;;;23.75;14.75;;;;;;;1.44;100.00;101788.31;5079301;28;20047;-71
2024/01/07 03:52:31;;;;;;;17.42;12.20;;;;;;;1.42;100.00;101787.66;5092603;28;20492;-71
2024/01/07 03:55:19;;;;;;;22.67;15.45;;;;;;;1.49;100.00;101782.38;5120729;27;20494;-72
2024/01/07 03:58:07;;;;;;;13.38;8.80;;;;;;;1.46;100.00;101791.63;5120324;27;20064;-71
2024/01/07 04:00:55;;;;;;;18.08;12.13;;;;;;;1.41;100.00;101790.53;5120817;27;20525;-71
2024/01/07 04:03:43;;;;;;;22.67;15.25;;;;;;;1.39;100.00;101788.00;5092741;27;20053;-72
2024/01/07 04:06:32;;;;;;;21.50;14.15;;;;;;;1.42;100.00;101802.91;5118115;27;20046;-72
2024/01/07 04:09:20;;;;;;;20.08;13.55;;;;;;;1.45;100.00;101797.19;5122004;27;20043;-72
2024/01/07 04:12:08;;;;;;;16.85;10.52;;;;;;;1.51;100.00;101796.44;5121624;27;20054;-72
2024/01/07 04:14:56;;;;;;;15.82;10.65;;;;;;;1.51;100.00;101806.38;5121169;27;20126;-71
2024/01/07 04:17:44;;;;;;;18.05;12.00;;;;;;;1.52;100.00;101806.19;5115548;27;20047;-71
2024/01/07 04:20:32;;;;;;;13.63;8.93;;;;;;;1.47;100.00;101813.97;5079430;28;20048;-70
2024/01/07 04:23:20;;;;;;;15.73;10.70;;;;;;;1.47;100.00;101816.66;5094563;28;20045;-71
2024/01/07 04:26:08;;;;;;;14.68;9.40;;;;;;;1.41;100.00;101810.16;5079816;28;20060;-72
2024/01/07 04:28:56;;;;;;;14.52;9.57;;;;;;;1.41;100.00;101822.75;5079694;28;20059;-71
2024/01/07 04:31:44;;;;;;;13.98;8.40;;;;;;;1.39;100.00;101820.22;5089574;28;20040;-71
2024/01/07 04:34:32;;;;;;;12.65;8.20;;;;;;;1.40;100.00;101826.47;5099956;28;20495;-71
2024/01/07 04:37:20;;;;;;;11.52;7.78;;;;;;;1.37;100.00;101822.28;5115674;28;20040;-71
2024/01/07 04:40:09;;;;;;;13.45;8.60;;;;;;;1.44;100.00;101833.13;5086745;28;20097;-70
2024/01/07 04:42:57;;;;;;;10.60;6.88;;;;;;;1.34;100.00;101840.59;5114644;28;20043;-71
2024/01/07 04:45:45;;;;;;;12.38;8.60;;;;;;;1.35;100.00;101844.94;5079021;28;20134;-71
2024/01/07 04:48:33;;;;;;;11.07;6.68;;;;;;;1.30;100.00;101848.19;5104875;28;20050;-70
2024/01/07 04:51:22;;;;;;;11.05;7.80;;;;;;;1.28;100.00;101861.78;5098693;28;20052;-70
2024/01/07 04:54:10;;;;;;;13.00;8.90;;;;;;;1.25;100.00;101853.25;5099018;28;20044;-70
2024/01/07 04:56:58;;;;;;;12.65;8.50;;;;;;;1.22;100.00;101857.13;5108833;27;20062;-70
2024/01/07 04:59:46;;;;;;;11.32;7.47;;;;;;;1.15;100.00;101861.56;5133890;27;20047;-71
2024/01/07 05:02:34;;;;;;;10.77;7.63;;;;;;;1.09;100.00;101856.91;5118759;27;20041;-70
2024/01/07 05:05:22;;;;;;;11.25;7.15;;;;;;;1.10;100.00;101855.91;5105371;27;20047;-70
2024/01/07 05:08:10;;;;;;;11.98;8.18;;;;;;;1.19;100.00;101856.66;5103155;27;20125;-71
2024/01/07 05:10:58;;;;;;;11.88;7.50;;;;;;;1.23;100.00;101858.81;5078359;28;20032;-70
2024/01/07 05:13:47;;;;;;;11.85;7.40;;;;;;;1.17;100.00;101866.75;5064456;28;20040;-71
2024/01/07 05:16:35;;;;;;;11.73;7.20;;;;;;;1.24;100.00;101870.38;5064108;28;20043;-70
2024/01/07 05:19:23;;;;;;;11.27;7.30;;;;;;;1.28;100.00;101872.53;5079554;28;20547;-70
2024/01/07 05:22:12;;;;;;;10.40;7.00;;;;;;;1.21;100.00;101876.13;5098249;28;20123;-70
2024/01/07 05:25:00;;;;;;;11.45;7.55;;;;;;;1.16;100.00;101882.03;5098535;28;20081;-71
2024/01/07 05:27:49;;;;;;;10.43;6.95;;;;;;;1.21;100.00;101879.63;5071173;27;20055;-69
2024/01/07 05:30:37;;;;;;;9.63;6.88;;;;;;;1.24;100.00;101887.31;5133898;27;20039;-70
2024/01/07 05:33:26;;;;;;;10.25;7.28;;;;;;;1.13;100.00;101890.44;5098864;28;20434;-70
2024/01/07 05:36:14;;;;;;;9.95;6.32;;;;;;;1.21;100.00;101893.06;5113973;28;20043;-70
2024/01/07 05:39:02;;;;;;;10.75;6.30;;;;;;;1.30;100.00;101896.53;5097485;28;20453;-70
2024/01/07 05:41:50;;;;;;;8.90;6.38;;;;;;;1.36;100.00;101901.16;5085133;28;20128;-70
2024/01/07 05:44:40;;;;;;;10.77;6.10;;;;;;;1.22;100.00;101901.94;5119901;27;20057;-70
2024/01/07 05:47:28;;;;;;;10.48;6.15;;;;;;;1.14;100.00;101908.22;5132913;27;20136;-71
2024/01/07 05:50:18;;;;;;;11.38;6.78;;;;;;;1.19;100.00;101911.19;5114837;28;20048;-71
2024/01/07 05:53:06;;;;;;;10.98;7.05;;;;;;;1.18;100.00;101912.22;5134367;28;20039;-71
2024/01/07 05:55:54;;;;;;;8.85;4.72;;;;;;;1.12;100.00;101917.47;5110949;28;20406;-70
2024/01/07 05:58:42;;;;;;;10.52;7.05;;;;;;;1.06;100.00;101919.84;5079901;28;20039;-70
2024/01/07 06:01:30;;;;;;;8.73;6.28;;;;;;;1.15;100.00;101920.59;5114846;28;20096;-72
2024/01/07 06:04:18;;;;;;;11.02;7.18;;;;;;;1.08;100.00;101938.44;5096890;28;20523;-72
2024/01/07 06:07:07;;;;;;;11.45;7.50;;;;;;;0.98;100.00;101935.16;5100831;28;20036;-72
2024/01/07 06:09:55;;;;;;;11.23;8.10;;;;;;;0.75;100.00;101932.44;5107050;28;20044;-71
2024/01/07 06:12:43;;;;;;;11.23;8.40;;;;;;;0.70;100.00;101942.84;5113386;28;20051;-71
2024/01/07 06:15:31;;;;;;;11.52;7.75;;;;;;;0.79;100.00;101939.09;5082013;28;20047;-70
2024/01/07 06:18:19;;;;;;;11.02;7.47;;;;;;;0.97;100.00;101949.59;5076534;28;20048;-71
2024/01/07 06:21:08;;;;;;;10.63;7.38;;;;;;;0.99;100.00;101953.78;5063426;28;20040;-68
2024/01/07 06:23:56;;;;;;;10.52;6.78;;;;;;;0.99;100.00;101958.31;5077132;28;20050;-69
2024/01/07 06:26:44;;;;;;;10.35;7.10;;;;;;;0.94;100.00;101960.66;5090972;28;20060;-69
2024/01/07 06:29:32;;;;;;;10.85;6.97;;;;;;;0.94;100.00;101968.69;5077778;28;20131;-68
2024/01/07 06:32:20;;;;;;;12.80;7.85;;;;;;;0.96;100.00;101969.38;5092238;28;20142;-70
2024/01/07 06:35:08;;;;;;;12.13;7.85;;;;;;;1.04;100.00;101972.03;5092252;28;20040;-70
2024/01/07 06:37:56;;;;;;;10.57;7.18;;;;;;;0.98;100.00;101980.75;5110837;28;20079;-70
2024/01/07 06:40:44;;;;;;;11.30;7.60;;;;;;;1.01;100.00;101977.72;5083702;28;20158;-70
2024/01/07 06:43:32;;;;;;;12.30;7.78;;;;;;;1.00;100.00;101984.94;5063022;28;20128;-72
2024/01/07 06:46:20;;;;;;;11.43;7.65;;;;;;;1.06;100.00;101996.84;5096899;28;20131;-69
2024/01/07 06:49:08;;;;;;;10.93;7.68;;;;;;;0.84;100.00;102001.13;5119321;27;20169;-69
2024/01/07 06:51:56;;;;;;;11.23;7.65;;;;;;;0.89;100.00;102005.97;5088251;28;20119;-69
2024/01/07 06:54:44;;;;;;;12.50;8.23;;;;;;;0.92;100.00;102008.31;5115577;28;20065;-68
2024/01/07 06:57:33;;;;;;;10.63;7.32;;;;;;;0.95;100.00;102010.66;5115545;28;20035;-68
2024/01/07 07:00:21;;;;;;;11.32;8.02;;;;;;;0.88;100.00;102015.03;5115781;27;20043;-67
2024/01/07 07:03:09;;;;;;;11.25;7.78;;;;;;;0.91;100.00;102020.88;5100298;28;20057;-68
2024/01/07 07:05:57;;;;;;;12.18;8.35;;;;;;;0.79;100.00;102022.28;5115267;28;20051;-68
2024/01/07 07:08:46;;;;;;;13.52;8.77;;;;;;;0.74;100.00;102033.53;5115944;28;20047;-69
2024/01/07 07:11:34;;;;;;;11.55;7.90;;;;;;;0.78;100.00;102036.72;5089396;27;20416;-68
2024/01/07 07:14:22;;;;;;;11.00;7.30;;;;;;;0.80;100.00;102034.69;5120945;27;20130;-67
2024/01/07 07:17:10;;;;;;;12.35;7.75;;;;;;;0.87;100.00;102035.66;5135105;27;20047;-68
2024/01/07 07:19:58;;;;;;;11.30;7.95;;;;;;;0.94;100.00;102044.69;5114729;28;20032;-67
2024/01/07 07:22:46;;;;;;;11.93;7.88;;;;;;;0.84;100.00;102036.84;5100701;28;20450;-68
2024/01/07 07:25:34;;;;;;;13.02;9.05;;;;;;;0.88;100.00;102042.69;5100112;28;20042;-68
2024/01/07 07:28:22;;;;;;;11.90;7.85;;;;;;;0.73;100.00;102050.63;5115142;28;20047;-68
2024/01/07 07:31:12;;;;;;;14.95;8.02;;;;;;;0.79;100.00;102055.28;5114196;28;20048;-68
2024/01/07 07:34:00;;;;;;;12.57;8.32;;;;;;;0.85;100.00;102053.78;5099489;28;20058;-68
2024/01/07 07:36:48;;;;;;;10.88;7.40;;;;;;;0.93;100.00;102066.31;5115298;27;20687;-68
2024/01/07 07:39:36;;;;;;;12.65;8.15;;;;;;;0.97;100.00;102067.66;5115199;28;20055;-67
2024/01/07 07:42:25;;;;;;;14.32;8.30;;;;;;;0.78;100.00;102069.72;5099549;28;20126;-68
2024/01/07 07:45:16;;;;;;;13.55;8.48;;;;;;;0.75;100.00;102078.13;5100319;28;20052;-66
2024/01/07 07:48:05;;;;;;;12.93;8.27;;;;;;;0.78;100.00;102088.50;5100257;28;20460;-68
2024/01/07 07:50:53;;;;;;;13.10;8.18;;;;;;;0.68;100.00;102090.56;5114791;27;20396;-67
2024/01/07 07:53:41;;;;;;;12.07;7.20;;;;;;;0.75;100.00;102096.06;5079900;28;20048;-67
2024/01/07 07:56:29;;;;;;;11.25;6.57;;;;;;;0.78;100.00;102095.72;5094404;28;20052;-67
2024/01/07 07:59:17;;;;;;;12.30;7.97;;;;;;;0.90;100.00;102101.56;5124248;27;20173;-67
2024/01/07 08:02:05;;;;;;;13.95;7.82;;;;;;;0.86;100.00;102103.75;5092597;27;20078;-68
2024/01/07 08:04:53;;;;;;;12.80;7.10;;;;;;;0.85;100.00;102119.00;5099611;28;20367;-67
2024/01/07 08:07:41;;;;;;;13.60;7.53;;;;;;;0.70;100.00;102115.38;5104647;27;20039;-66
2024/01/07 08:10:31;;;;;;;11.88;7.65;;;;;;;0.71;100.00;102114.34;5118802;27;20049;-67
2024/01/07 08:13:19;;;;;;;12.95;8.88;;;;;;;0.69;100.00;102121.72;5111248;28;20559;-68
2024/01/07 08:16:10;;;;;;;11.75;7.40;;;;;;;0.59;100.00;102113.84;5114259;28;20051;-68
2024/01/07 08:18:58;;;;;;;11.98;7.43;;;;;;;0.38;100.00;102117.06;5080209;28;20062;-67
2024/01/07 08:21:47;;;;;;;14.23;8.40;;;;;;;0.42;100.00;102123.75;5080426;28;20052;-67
2024/01/07 08:24:35;;;;;;;12.55;7.68;;;;;;;0.44;100.00;102125.47;5113646;28;20047;-66
2024/01/07 08:27:23;;;;;;;14.55;7.95;;;;;;;0.41;100.00;102143.56;5097487;28;20051;-67
2024/01/07 08:30:13;;;;;;;11.48;7.32;;;;;;;0.30;100.00;102130.47;5098129;28;20052;-66
2024/01/07 08:33:01;;;;;;;11.55;7.35;;;;;;;0.36;100.00;102145.91;5097941;28;20471;-67
2024/01/07 08:35:49;;;;;;;11.02;7.32;;;;;;;0.52;100.00;102141.53;5113322;28;20044;-69
2024/01/07 08:38:37;;;;;;;14.98;7.75;;;;;;;0.63;100.00;102150.06;5098876;28;20047;-69
2024/01/07 08:41:25;;;;;;;10.27;7.10;;;;;;;0.65;100.00;102155.28;5097883;28;20112;-68
2024/01/07 08:44:13;;;;;;;10.95;7.50;;;;;;;0.66;100.00;102151.56;5107178;27;20047;-69
2024/01/07 08:47:02;;;;;;;13.80;7.22;;;;;;;0.69;100.00;102161.13;5134387;27;20407;-68
2024/01/07 08:49:53;;;;;;;12.35;7.18;;;;;;;0.55;100.00;102157.28;5119224;27;20054;-68
2024/01/07 08:52:41;;;;;;;11.95;6.90;;;;;;;0.63;100.00;102165.31;5117145;27;20066;-68
2024/01/07 08:55:30;;;;;;;10.18;6.30;;;;;;;0.66;100.00;102170.34;5134539;27;20483;-67
2024/01/07 08:58:19;;;;;;;9.73;6.55;;;;;;;0.68;100.00;102173.69;5119403;27;20043;-69
2024/01/07 09:01:07;;;;;;;12.43;6.93;;;;;;;0.73;100.00;102171.34;5131664;27;20108;-67
2024/01/07 09:03:55;;;;;;;10.95;6.72;;;;;;;0.71;100.00;102177.88;5098558;28;20047;-67
2024/01/07 09:06:44;;;;;;;11.20;6.03;;;;;;;0.56;100.00;102194.66;5113326;28;20052;-68
2024/01/07 09:09:31;;;;;;;10.32;6.18;;;;;;;0.49;100.00;102192.81;5098651;28;20177;-68
2024/01/07 09:12:20;;;;;;;10.15;6.35;;;;;;;0.61;100.00;102204.88;5112513;28;20051;-67
2024/01/07 09:15:08;;;;;;;9.65;5.93;;;;;;;0.54;100.00;102211.94;5099958;28;20051;-67
2024/01/07 09:17:56;;;;;;;8.70;5.50;;;;;;;0.46;100.00;102210.09;5114072;28;20043;-68
2024/01/07 09:20:44;;;;;;;15.65;7.47;;;;;;;0.49;100.00;102219.63;5112861;28;20056;-68
2024/01/07 09:23:33;;;;;;;13.95;7.20;;;;;;;0.49;100.00;102220.47;5092428;28;20100;-67
2024/01/07 09:26:21;;;;;;;11.05;6.38;;;;;;;0.53;100.00;102223.63;5094014;28;20108;-68
2024/01/07 09:29:10;;;;;;;10.10;5.80;;;;;;;0.54;100.00;102228.00;5092738;28;20075;-67
2024/01/07 09:31:59;;;;;;;10.23;5.53;;;;;;;0.55;100.00;102225.16;5092915;27;20054;-67
2024/01/07 09:34:47;;;;;;;10.60;5.65;;;;;;;0.64;100.00;102228.69;5133479;27;20047;-67
2024/01/07 09:37:35;;;;;;;11.98;5.88;;;;;;;0.50;100.00;102234.72;5132974;27;20055;-68
2024/01/07 09:40:23;;;;;;;13.32;6.78;;;;;;;0.42;100.00;102247.09;5133558;27;20039;-67
2024/01/07 09:43:12;;;;;;;12.50;6.00;;;;;;;0.45;100.00;102245.94;5101958;28;20035;-67
2024/01/07 09:46:00;;;;;;;12.07;6.53;;;;;;;0.43;100.00;102253.28;5112547;28;20101;-68
2024/01/07 09:48:48;;;;;;;9.60;6.10;;;;;;;0.47;100.00;102248.47;5112834;28;20389;-69
2024/01/07 09:51:37;;;;;;;9.70;5.50;;;;;;;0.51;100.00;102249.81;5111482;28;20040;-67
2024/01/07 09:54:25;;;;;;;9.50;5.63;;;;;;;0.32;100.00;102261.69;5097376;28;20121;-67
2024/01/07 09:57:13;;;;;;;9.68;5.43;;;;;;;0.27;100.00;102264.84;5097302;28;20063;-67
2024/01/07 10:00:02;;;;;;;10.45;5.85;;;;;;;0.31;100.00;102263.50;5096433;28;20448;-67
2024/01/07 10:02:59;;;;;;;8.80;5.07;;;;;;;0.31;100.00;102271.53;5099124;28;20078;-67
2024/01/07 10:05:47;;;;;;;7.60;5.07;;;;;;;0.37;100.00;102268.22;5083331;28;20040;-69
2024/01/07 10:08:35;;;;;;;9.38;5.55;;;;;;;0.35;100.00;102288.97;5098200;28;20392;-67
2024/01/07 10:11:23;;;;;;;9.27;5.53;;;;;;;0.28;100.00;102281.75;5096870;28;20456;-68
2024/01/07 10:14:11;;;;;;;9.10;5.70;;;;;;;0.23;100.00;102284.94;5098249;28;20097;-67
2024/01/07 10:16:59;;;;;;;10.63;5.82;;;;;;;0.27;100.00;102280.94;5115780;28;20111;-67
2024/01/07 10:19:47;;;;;;;9.50;5.30;;;;;;;0.30;100.00;102291.31;5121453;28;20099;-69
2024/01/07 10:22:37;;;;;;;9.05;5.65;;;;;;;0.40;100.00;102281.28;5120541;28;20131;-67
2024/01/07 10:25:25;;;;;;;9.48;6.18;;;;;;;0.30;100.00;102285.97;5114138;28;20051;-68
2024/01/07 10:28:14;;;;;;;10.88;5.72;;;;;;;0.25;100.00;102282.09;5106130;28;20502;-67
2024/01/07 10:31:03;;;;;;;9.38;5.45;;;;;;;0.31;100.00;102290.31;5109805;28;20146;-67
2024/01/07 10:33:52;;;;;;;9.10;5.28;;;;;;;0.34;100.00;102300.72;5105188;28;20074;-67
2024/01/07 10:36:40;;;;;;;10.07;6.13;;;;;;;0.31;100.00;102300.19;5102171;28;20039;-69
2024/01/07 10:39:30;;;;;;;9.52;5.63;;;;;;;0.28;100.00;102295.16;5083501;28;20410;-69
2024/01/07 10:42:18;;;;;;;10.40;6.10;;;;;;;0.38;100.00;102298.53;5096176;28;20436;-68
2024/01/07 10:45:07;;;;;;;11.57;6.10;;;;;;;0.44;100.00;102289.00;5097359;28;20407;-68
2024/01/07 10:47:56;;;;;;;11.57;6.28;;;;;;;0.49;100.00;102294.72;5096539;28;20122;-67
2024/01/07 10:50:46;;;;;;;9.00;5.78;;;;;;;0.53;100.00;102296.91;5081567;28;20051;-69
2024/01/07 10:53:34;;;;;;;10.95;5.90;;;;;;;0.48;100.00;102293.88;5084331;28;20036;-68
2024/01/07 10:56:24;;;;;;;10.73;5.55;;;;;;;0.43;100.00;102290.84;5111395;28;20522;-67
2024/01/07 10:59:12;;;;;;;10.77;6.32;;;;;;;0.43;100.00;102293.50;5096339;28;20169;-68
2024/01/07 11:02:02;;;;;;;12.07;7.13;;;;;;;0.45;100.00;102304.09;5076204;28;20052;-68
2024/01/07 11:05:15;;;;;;;10.93;6.00;;;;;;;0.71;100.00;102296.75;5075448;28;20386;-67
2024/01/07 11:08:23;;;;;;;10.30;5.90;;;;;;;0.61;100.00;102301.44;5076948;28;20055;-68
2024/01/07 11:11:41;;;;;;;12.98;6.97;;;;;;;0.47;100.00;102305.59;5089773;28;20123;-67
2024/01/07 11:14:39;;;;;;;10.50;6.05;;;;;;;0.41;100.00;102309.78;5090575;28;20072;-67
2024/01/07 11:17:37;;;;;;;12.20;6.18;;;;;;;0.38;100.00;102319.97;5091263;28;20054;-68
2024/01/07 11:20:26;;;;;;;11.75;6.50;;;;;;;0.46;100.00;102321.84;5095503;28;20043;-67
2024/01/07 11:23:42;;;;;;;11.63;6.47;;;;;;;0.47;100.00;102328.91;5097607;28;20089;-68
2024/01/07 11:26:30;;;;;;;11.00;6.20;;;;;;;0.35;100.00;102315.78;5111341;28;20189;-67
2024/01/07 11:29:19;;;;;;;10.82;5.93;;;;;;;0.45;100.00;102325.53;5112105;28;20495;-68
2024/01/07 11:32:08;;;;;;;11.43;6.15;;;;;;;0.41;100.00;102320.50;5121960;28;20612;-68
2024/01/07 11:34:59;;;;;;;10.85;5.85;;;;;;;0.39;100.00;102333.22;5134737;27;20134;-68
2024/01/07 11:37:47;;;;;;;10.15;5.93;;;;;;;0.44;100.00;102329.22;5134938;27;20039;-70
2024/01/07 11:40:35;;;;;;;8.85;5.25;;;;;;;0.45;100.00;102321.00;5135340;27;20125;-68
2024/01/07 11:43:23;;;;;;;8.57;5.15;;;;;;;0.48;100.00;102325.19;5119248;27;20053;-68
2024/01/07 11:46:11;;;;;;;8.32;4.57;;;;;;;0.53;100.00;102328.22;5078960;28;20441;-67
2024/01/07 11:48:59;;;;;;;8.18;4.70;;;;;;;0.46;100.00;102325.38;5080570;28;20054;-69
2024/01/07 11:51:48;;;;;;;6.90;4.43;;;;;;;0.53;100.00;102317.50;5072700;28;20498;-67
2024/01/07 11:54:39;;;;;;;10.82;5.18;;;;;;;0.54;100.00;102316.50;5073355;28;20047;-68
2024/01/07 11:57:27;;;;;;;9.65;4.43;;;;;;;0.55;100.00;102315.50;5099543;27;20050;-67
2024/01/07 12:00:16;;;;;;;9.13;4.40;;;;;;;0.51;100.00;102314.16;5136052;27;20078;-68
2024/01/07 12:03:04;;;;;;;8.27;4.30;;;;;;;0.48;100.00;102318.03;4390438;28;10001153;-69
2024/01/07 12:05:52;;;;;;;7.90;4.22;;;;;;;0.36;100.00;102321.97;5091384;28;20081;-69
2024/01/07 12:08:42;;;;;;;7.97;4.65;;;;;;;0.25;100.00;102314.25;5094923;28;20042;-68
2024/01/07 12:11:30;;;;;;;8.05;4.75;;;;;;;0.26;100.00;102324.81;5083237;28;20451;-68
2024/01/07 12:14:19;;;;;;;7.82;4.22;;;;;;;0.31;100.00;102325.16;5113860;27;20514;-71
2024/01/07 12:17:10;;;;;;;6.63;3.97;;;;;;;0.30;100.00;102328.84;5117341;27;20058;-69
2024/01/07 12:20:04;;;;;;;7.38;4.47;;;;;;;0.25;100.00;102331.19;5116015;27;20047;-69
2024/01/07 12:22:55;;;;;;;9.60;4.38;;;;;;;0.29;100.00;102324.50;5114860;27;20054;-68
2024/01/07 12:25:43;;;;;;;8.02;4.05;;;;;;;0.39;100.00;102338.59;5110954;28;20059;-68
2024/01/07 12:28:31;;;;;;;6.25;3.72;;;;;;;0.37;100.00;102335.22;5109985;28;20515;-69
2024/01/07 12:31:19;;;;;;;6.97;3.92;;;;;;;0.38;100.00;102331.53;5110637;28;20043;-69
2024/01/07 12:34:08;;;;;;;6.30;3.65;;;;;;;0.50;100.00;102333.94;5095551;28;20043;-70
2024/01/07 12:36:56;;;;;;;5.85;3.55;;;;;;;0.54;100.00;102327.25;5095321;28;20051;-69
2024/01/07 12:39:44;;;;;;;8.07;4.40;;;;;;;0.51;100.00;102335.63;5081699;28;20043;-69
2024/01/07 12:42:32;;;;;;;8.52;4.00;;;;;;;0.54;100.00;102336.13;5110665;28;20059;-69
2024/01/07 12:45:20;;;;;;;9.45;4.45;;;;;;;0.47;100.00;102340.47;5108727;28;20062;-68
2024/01/07 12:48:09;;;;;;;6.05;3.78;;;;;;;0.47;100.00;102355.72;5097387;28;20048;-70
2024/01/07 12:50:57;;;;;;;8.43;3.90;;;;;;;0.41;100.00;102341.13;5110972;28;20040;-70
2024/01/07 12:53:46;;;;;;;7.82;3.70;;;;;;;0.53;100.00;102347.88;5081673;28;20519;-70
2024/01/07 12:56:34;;;;;;;6.57;3.45;;;;;;;0.47;100.00;102353.03;5109921;28;20421;-70